createdAt,value
2022-08-21T00:03:42.956Z,35.10
2022-08-21T00:08:47.110Z,39.83
2022-08-21T00:13:51.888Z,40.13
2022-08-21T00:18:55.286Z,40.60
2022-08-21T00:23:58.714Z,42.47
2022-08-21T00:29:04.345Z,37.28
2022-08-21T00:34:07.875Z,37.38
2022-08-21T00:39:12.026Z,37.72
2022-08-21T00:44:17.626Z,41.90
2022-08-21T00:49:21.163Z,41.30
2022-08-21T00:54:28.118Z,40.17
2022-08-21T00:59:37.288Z,39.05
2022-08-21T01:04:40.800Z,39.72
2022-08-21T01:09:46.294Z,44.08
2022-08-21T01:14:51.176Z,42.60
2022-08-21T01:19:55.135Z,42.08
2022-08-21T01:24:59.967Z,41.20
2022-08-21T01:30:12.593Z,40.25
2022-08-21T01:35:18.216Z,40.63
2022-08-21T01:40:23.123Z,44.33
2022-08-21T01:45:26.650Z,40.95
2022-08-21T01:50:30.075Z,42.85
2022-08-21T01:55:35.373Z,36.53
2022-08-21T02:00:38.917Z,40.85
2022-08-21T02:05:42.360Z,37.72
2022-08-21T02:10:48.930Z,36.50
2022-08-21T02:15:52.672Z,35.10
2022-08-21T02:20:56.634Z,36.53
2022-08-21T02:26:03.186Z,37.30
2022-08-21T02:31:08.197Z,37.45
2022-08-21T02:36:14.180Z,35.72
2022-08-21T02:41:21.875Z,36.47
2022-08-21T02:46:25.281Z,35.13
2022-08-21T02:51:28.671Z,32.45
2022-08-21T02:56:33.518Z,33.70
2022-08-21T03:01:38.599Z,34.13
2022-08-21T03:06:42.071Z,35.67
2022-08-21T03:11:47.659Z,34.17
2022-08-21T03:16:51.161Z,36.00
2022-08-21T03:21:54.582Z,36.92
2022-08-21T03:26:59.329Z,39.88
2022-08-21T03:32:03.415Z,48.38
2022-08-21T03:37:08.109Z,36.37
2022-08-21T03:42:13.672Z,37.78
2022-08-21T03:47:17.203Z,40.95
2022-08-21T03:52:20.637Z,38.33
2022-08-21T03:57:25.414Z,42.22
2022-08-21T04:02:28.859Z,41.90
2022-08-21T04:07:32.468Z,42.33
2022-08-21T04:12:37.188Z,41.50
2022-08-21T04:17:40.927Z,43.03
2022-08-21T04:22:45.442Z,46.45
2022-08-21T04:27:50.373Z,43.47
2022-08-21T04:32:54.149Z,44.45
2022-08-21T04:37:58.198Z,43.40
2022-08-21T04:48:14.067Z,43.58
2022-08-21T04:53:20.990Z,44.67
2022-08-21T04:58:28.450Z,46.78
2022-08-21T05:03:34.755Z,45.85
2022-08-21T05:08:41.349Z,43.25
2022-08-21T05:13:46.780Z,44.03
2022-08-21T05:18:50.153Z,47.47
2022-08-21T05:28:58.077Z,46.40
2022-08-21T05:34:01.594Z,41.10
2022-08-21T05:39:08.834Z,42.30
2022-08-21T05:44:13.731Z,42.67
2022-08-21T05:49:17.169Z,44.55
2022-08-21T05:54:20.526Z,41.78
2022-08-21T05:59:26.415Z,42.35
2022-08-21T06:04:30.111Z,39.17
2022-08-21T06:09:35.028Z,40.35
2022-08-21T06:14:40.741Z,40.95
2022-08-21T06:19:44.151Z,41.83
2022-08-21T06:24:50.202Z,39.35
2022-08-21T06:29:55.081Z,34.63
2022-08-21T06:34:58.519Z,41.15
2022-08-21T06:40:02.625Z,38.60
2022-08-21T06:45:09.446Z,38.50
2022-08-21T06:50:14.051Z,34.22
2022-08-21T06:55:22.292Z,35.85
2022-08-21T07:00:29.223Z,38.38
2022-08-21T07:05:32.898Z,36.92
2022-08-21T07:10:36.323Z,34.30
2022-08-21T07:15:41.276Z,34.13
2022-08-21T07:20:45.512Z,42.50
2022-08-21T07:25:48.893Z,33.47
2022-08-21T07:30:56.076Z,38.72
2022-08-21T07:36:01.473Z,34.67
2022-08-21T07:41:09.237Z,37.10
2022-08-21T07:46:14.620Z,32.72
2022-08-21T07:51:19.245Z,30.73
2022-08-21T07:56:23.795Z,36.08
2022-08-21T08:01:28.920Z,29.48
2022-08-21T08:06:32.562Z,29.95
2022-08-21T08:11:36.029Z,31.92
2022-08-21T08:16:40.986Z,38.50
2022-08-21T08:21:44.409Z,29.65
2022-08-21T08:26:53.709Z,31.40
2022-08-21T08:31:59.002Z,30.52
2022-08-21T08:37:02.731Z,30.73
2022-08-21T08:42:33.886Z,31.65
2022-08-21T08:47:40.184Z,29.33
2022-08-21T08:52:48.595Z,29.33
2022-08-21T08:57:54.086Z,24.77
2022-08-21T09:03:01.845Z,32.05
2022-08-21T09:08:36.475Z,27.13
2022-08-21T09:14:03.338Z,20.83
2022-08-21T09:19:18.835Z,28.27
2022-08-21T09:24:34.370Z,30.45
2022-08-21T09:29:42.127Z,26.60
2022-08-21T09:34:59.090Z,30.95
2022-08-21T09:40:03.688Z,31.85
2022-08-21T09:45:12.855Z,37.00
2022-08-21T09:50:20.900Z,26.02
2022-08-21T09:55:52.418Z,26.15
2022-08-21T10:01:01.579Z,29.13
2022-08-21T10:06:10.423Z,19.63
2022-08-21T10:11:16.961Z,24.80
2022-08-21T10:16:30.751Z,24.70
2022-08-21T10:21:43.621Z,27.75
2022-08-21T10:26:56.971Z,27.20
2022-08-21T10:32:14.271Z,26.52
2022-08-21T10:37:40.925Z,26.92
2022-08-21T10:42:54.525Z,24.42
2022-08-21T10:48:04.815Z,25.75
2022-08-21T10:53:21.035Z,32.75
2022-08-21T10:58:31.529Z,27.00
2022-08-21T11:03:40.124Z,23.80
2022-08-21T11:08:48.482Z,22.95
2022-08-21T11:13:57.537Z,26.52
2022-08-21T11:19:09.046Z,22.15
2022-08-21T11:24:31.366Z,24.65
2022-08-21T11:29:39.432Z,28.35
2022-08-21T11:34:58.439Z,28.55
2022-08-21T11:40:12.468Z,25.42
2022-08-21T11:45:23.293Z,22.33
2022-08-21T11:50:35.174Z,17.95
2022-08-21T11:55:47.072Z,22.02
2022-08-21T12:00:55.932Z,16.70
2022-08-21T12:06:02.659Z,25.13
2022-08-21T12:11:10.120Z,28.58
2022-08-21T12:16:17.060Z,19.38
2022-08-21T12:21:24.757Z,19.95
2022-08-21T12:26:32.621Z,21.58
2022-08-21T12:31:36.114Z,29.88
2022-08-21T12:36:47.005Z,27.20
2022-08-21T12:42:01.846Z,18.95
2022-08-21T12:47:15.156Z,22.25
2022-08-21T12:52:23.871Z,26.17
2022-08-21T12:57:30.753Z,23.60
2022-08-21T13:02:40.745Z,23.77
2022-08-21T13:07:49.241Z,21.15
2022-08-21T13:12:58.467Z,25.10
2022-08-21T13:18:06.261Z,23.98
2022-08-21T13:23:23.605Z,21.33
2022-08-21T13:28:35.746Z,21.42
2022-08-21T13:33:41.549Z,22.48
2022-08-21T13:38:48.635Z,25.27
2022-08-21T13:44:00.570Z,18.15
2022-08-21T13:49:07.479Z,25.13
2022-08-21T13:54:23.612Z,21.40
2022-08-21T13:59:34.737Z,20.63
2022-08-21T14:04:44.706Z,21.55
2022-08-21T14:09:58.106Z,19.75
2022-08-21T14:15:06.366Z,20.48
2022-08-21T14:20:14.321Z,20.42
2022-08-21T14:25:31.512Z,22.45
2022-08-21T14:30:38.646Z,22.95
2022-08-21T14:35:42.827Z,21.30
2022-08-21T14:40:49.512Z,22.35
2022-08-21T14:45:54.745Z,22.17
2022-08-21T14:51:00.682Z,25.90
2022-08-21T14:56:08.047Z,24.58
2022-08-21T15:01:15.910Z,22.48
2022-08-21T15:06:22.074Z,25.67
2022-08-21T15:11:42.227Z,28.70
2022-08-21T15:16:49.644Z,29.35
2022-08-21T15:21:53.206Z,23.15
2022-08-21T15:26:58.226Z,20.58
2022-08-21T15:32:06.001Z,26.08
2022-08-21T15:37:10.585Z,28.15
2022-08-21T15:42:15.036Z,22.73
2022-08-21T15:47:23.405Z,20.60
2022-08-21T15:52:27.433Z,25.85
2022-08-21T15:57:30.989Z,27.30
2022-08-21T16:02:36.055Z,26.00
2022-08-21T16:07:40.007Z,20.45
2022-08-21T16:17:53.019Z,23.38
2022-08-21T16:22:58.812Z,21.40
2022-08-21T16:28:03.627Z,20.23
2022-08-21T16:33:13.242Z,26.88
2022-08-21T16:38:17.401Z,26.73
2022-08-21T16:43:22.018Z,28.58
2022-08-21T16:48:27.062Z,31.83
2022-08-21T16:53:30.583Z,39.28
2022-08-21T16:58:37.035Z,39.08
2022-08-21T17:03:43.870Z,41.28
2022-08-21T17:08:52.557Z,38.15
2022-08-21T17:13:58.694Z,41.78
2022-08-21T17:19:03.566Z,43.63
2022-08-21T17:24:07.611Z,41.25
2022-08-21T17:34:18.469Z,46.42
2022-08-21T17:39:26.674Z,42.97
2022-08-21T17:44:30.651Z,40.03
2022-08-21T17:49:35.714Z,50.65
2022-08-21T17:54:41.431Z,47.47
2022-08-21T17:59:46.141Z,47.38
2022-08-21T18:04:51.742Z,47.42
2022-08-21T18:09:56.176Z,48.17
2022-08-21T18:15:01.479Z,42.40
2022-08-21T18:20:08.269Z,42.35
2022-08-21T18:25:12.553Z,45.00
2022-08-21T18:30:18.576Z,40.75
2022-08-21T18:35:25.651Z,42.47
2022-08-21T18:40:29.506Z,41.42
2022-08-21T18:45:34.646Z,40.58
2022-08-21T18:50:41.424Z,37.72
2022-08-21T18:55:46.272Z,37.78
2022-08-21T19:00:55.662Z,38.92
2022-08-21T19:06:00.756Z,35.78
2022-08-21T19:11:05.034Z,34.88
2022-08-21T19:16:11.156Z,34.55
2022-08-21T19:21:16.635Z,33.25
2022-08-21T19:26:20.543Z,33.70
2022-08-21T19:31:26.131Z,31.42
2022-08-21T19:36:34.438Z,33.22
2022-08-21T19:41:42.545Z,33.42
2022-08-21T19:46:46.651Z,28.65
2022-08-21T19:51:55.222Z,27.67
2022-08-21T19:57:03.723Z,26.30
2022-08-21T20:02:09.374Z,26.73
2022-08-21T20:07:14.409Z,28.15
2022-08-21T20:12:18.004Z,27.33
2022-08-21T20:17:21.861Z,29.30
2022-08-21T20:22:26.997Z,35.97
2022-08-21T20:27:30.570Z,31.83
2022-08-21T20:32:39.980Z,29.75
2022-08-21T20:43:12.984Z,25.75
2022-08-21T20:48:23.870Z,25.98
2022-08-21T20:53:43.831Z,28.42
2022-08-21T20:58:56.440Z,27.10
2022-08-21T21:04:10.066Z,30.10
2022-08-21T21:09:34.418Z,22.67
2022-08-21T21:14:48.346Z,32.47
2022-08-21T21:19:57.871Z,33.97
2022-08-21T21:25:09.296Z,31.67
2022-08-21T21:30:16.857Z,32.50
2022-08-21T21:35:36.368Z,31.20
2022-08-21T21:40:49.774Z,35.67
2022-08-21T21:46:10.698Z,34.00
2022-08-21T21:51:24.379Z,32.85
2022-08-21T21:56:36.463Z,34.87
2022-08-21T22:01:50.968Z,32.78
2022-08-21T22:07:01.400Z,36.30
2022-08-21T22:12:28.049Z,36.00
2022-08-21T22:17:41.166Z,31.17
2022-08-21T22:22:46.201Z,29.30
2022-08-21T22:27:59.154Z,32.10
2022-08-21T22:33:08.619Z,27.52
2022-08-21T22:38:20.770Z,27.20
2022-08-21T22:43:27.469Z,28.53
2022-08-21T22:48:33.636Z,31.00
2022-08-21T22:53:40.961Z,25.38
2022-08-21T22:58:59.311Z,26.17
2022-08-21T23:04:17.018Z,24.40
2022-08-21T23:09:30.788Z,21.90
2022-08-21T23:14:36.239Z,24.88
2022-08-21T23:19:52.284Z,21.95
2022-08-21T23:25:04.618Z,26.02
2022-08-21T23:30:14.979Z,27.08
2022-08-21T23:35:44.496Z,26.73
2022-08-21T23:40:56.763Z,24.50
2022-08-21T23:46:33.375Z,25.80
2022-08-21T23:51:48.348Z,21.95
2022-08-21T23:57:11.047Z,28.45
